createdAt,value
2022-12-19T00:01:57.672Z,72.07
2022-12-19T00:04:25.241Z,71.96
2022-12-19T00:06:52.767Z,72.22
2022-12-19T00:09:20.269Z,72.04
2022-12-19T00:11:48.781Z,72.17
2022-12-19T00:14:16.268Z,72.00
2022-12-19T00:16:44.045Z,72.69
2022-12-19T00:19:13.480Z,72.59
2022-12-19T00:21:40.973Z,72.60
2022-12-19T00:24:15.354Z,72.45
2022-12-19T00:26:49.555Z,72.92
2022-12-19T00:29:17.045Z,72.97
2022-12-19T00:31:44.839Z,72.72
2022-12-19T00:34:13.744Z,73.24
2022-12-19T00:36:41.363Z,73.65
2022-12-19T00:39:10.179Z,73.88
2022-12-19T00:41:41.566Z,74.48
2022-12-19T00:44:12.187Z,74.32
2022-12-19T00:46:39.819Z,73.23
2022-12-19T00:49:07.294Z,74.09
2022-12-19T00:51:38.057Z,74.70
2022-12-19T00:54:07.284Z,75.68
2022-12-19T00:56:37.502Z,75.22
2022-12-19T00:59:06.609Z,75.95
2022-12-19T01:01:36.381Z,75.53
2022-12-19T01:07:02.301Z,75.73
2022-12-19T01:09:30.409Z,75.78
2022-12-19T01:12:15.722Z,76.67
2022-12-19T01:14:43.704Z,76.48
2022-12-19T01:17:11.398Z,76.70
2022-12-19T01:19:43.623Z,76.49
2022-12-19T01:22:27.927Z,75.97
2022-12-19T01:24:55.560Z,76.42
2022-12-19T01:27:23.005Z,76.48
2022-12-19T01:29:52.881Z,77.09
2022-12-19T01:32:21.205Z,76.08
2022-12-19T01:34:48.660Z,76.59
2022-12-19T01:37:16.155Z,76.11
2022-12-19T01:39:46.116Z,76.08
2022-12-19T01:42:16.567Z,76.11
2022-12-19T01:45:05.087Z,75.87
2022-12-19T01:47:36.267Z,76.18
2022-12-19T01:50:04.805Z,76.65
2022-12-19T01:52:32.471Z,77.83
2022-12-19T01:55:02.214Z,77.45
2022-12-19T01:57:30.484Z,78.08
2022-12-19T02:00:01.343Z,78.75
2022-12-19T02:02:32.934Z,78.31
2022-12-19T02:05:01.466Z,78.39
2022-12-19T02:07:29.283Z,78.24
2022-12-19T02:09:58.484Z,79.20
2022-12-19T02:12:28.937Z,78.46
2022-12-19T02:15:02.718Z,78.08
2022-12-19T02:17:42.502Z,78.39
2022-12-19T02:20:40.795Z,78.95
2022-12-19T02:23:34.915Z,79.55
2022-12-19T02:26:23.050Z,80.05
2022-12-19T02:29:10.006Z,79.78
2022-12-19T02:31:45.696Z,79.94
2022-12-19T02:34:21.633Z,79.70
2022-12-19T02:36:55.431Z,79.22
2022-12-19T02:39:29.601Z,78.69
2022-12-19T02:41:59.943Z,78.46
2022-12-19T02:44:31.437Z,78.58
2022-12-19T02:47:03.056Z,78.62
2022-12-19T02:49:31.421Z,78.53
2022-12-19T02:51:59.013Z,77.98
2022-12-19T02:54:26.773Z,78.49
2022-12-19T02:57:02.370Z,78.28
2022-12-19T02:59:47.692Z,78.22
2022-12-19T03:02:27.893Z,78.24
2022-12-19T03:05:00.827Z,77.30
2022-12-19T03:07:32.929Z,77.08
2022-12-19T03:10:10.000Z,76.21
2022-12-19T03:12:41.403Z,76.44
2022-12-19T03:15:12.979Z,77.09
2022-12-19T03:17:42.316Z,77.17
2022-12-19T03:20:19.588Z,76.18
2022-12-19T03:22:47.524Z,76.40
2022-12-19T03:25:15.339Z,75.38
2022-12-19T03:27:43.778Z,75.35
2022-12-19T03:30:14.158Z,75.76
2022-12-19T03:32:46.193Z,76.08
2022-12-19T03:35:18.550Z,75.83
2022-12-19T03:37:49.687Z,75.03
2022-12-19T03:40:19.690Z,75.86
2022-12-19T03:43:07.014Z,75.60
2022-12-19T03:45:44.013Z,75.47
2022-12-19T03:48:17.687Z,76.50
2022-12-19T03:50:54.886Z,77.42
2022-12-19T03:53:37.354Z,77.00
2022-12-19T03:56:14.582Z,78.17
2022-12-19T03:58:48.806Z,76.79
2022-12-19T04:01:16.880Z,78.21
2022-12-19T04:03:45.909Z,77.96
2022-12-19T04:06:15.863Z,79.61
2022-12-19T04:08:43.715Z,79.37
2022-12-19T04:11:19.297Z,79.69
2022-12-19T04:13:53.153Z,79.81
2022-12-19T04:16:27.903Z,79.64
2022-12-19T04:19:04.241Z,80.50
2022-12-19T04:21:37.709Z,80.39
2022-12-19T04:24:12.036Z,80.27
2022-12-19T04:26:42.193Z,79.89
2022-12-19T04:29:13.034Z,80.21
2022-12-19T04:31:41.178Z,80.65
2022-12-19T04:34:09.986Z,79.97
2022-12-19T04:36:37.503Z,81.17
2022-12-19T04:39:05.173Z,81.63
2022-12-19T04:41:32.631Z,81.78
2022-12-19T04:44:00.101Z,82.08
2022-12-19T04:46:27.567Z,81.16
2022-12-19T04:48:55.024Z,81.93
2022-12-19T04:51:23.831Z,82.74
2022-12-19T04:53:51.288Z,82.57
2022-12-19T04:56:18.737Z,82.79
2022-12-19T04:58:46.181Z,83.32
2022-12-19T05:01:14.187Z,83.29
2022-12-19T05:03:42.212Z,83.94
2022-12-19T05:06:12.035Z,84.33
2022-12-19T05:08:42.343Z,83.70
2022-12-19T05:11:14.583Z,84.56
2022-12-19T05:13:46.546Z,83.72
2022-12-19T05:16:15.783Z,84.02
2022-12-19T05:18:43.907Z,83.69
2022-12-19T05:21:11.910Z,83.48
2022-12-19T05:23:40.994Z,83.35
2022-12-19T05:26:08.874Z,83.23
2022-12-19T05:28:36.396Z,83.56
2022-12-19T05:31:05.988Z,83.71
2022-12-19T05:33:33.671Z,83.77
2022-12-19T05:36:01.366Z,83.46
2022-12-19T05:38:29.372Z,83.99
2022-12-19T05:40:58.632Z,84.13
2022-12-19T05:43:26.380Z,83.97
2022-12-19T05:45:53.903Z,84.19
2022-12-19T05:48:21.351Z,84.77
2022-12-19T05:50:50.100Z,84.01
2022-12-19T05:53:20.720Z,84.32
2022-12-19T05:55:52.050Z,84.49
2022-12-19T05:58:20.866Z,84.99
2022-12-19T06:00:48.339Z,84.71
2022-12-19T06:03:15.847Z,84.72
2022-12-19T06:05:43.386Z,84.22
2022-12-19T06:08:11.510Z,85.03
2022-12-19T06:10:39.061Z,84.94
2022-12-19T06:13:06.832Z,84.87
2022-12-19T06:15:35.637Z,85.56
2022-12-19T06:18:03.104Z,84.98
2022-12-19T06:20:30.567Z,83.82
2022-12-19T06:22:58.018Z,84.28
2022-12-19T06:25:25.489Z,84.93
2022-12-19T06:27:52.928Z,84.57
2022-12-19T06:30:20.404Z,84.84
2022-12-19T06:32:49.193Z,85.00
2022-12-19T06:35:16.665Z,84.91
2022-12-19T06:37:44.111Z,85.44
2022-12-19T06:40:33.739Z,84.45
2022-12-19T06:43:00.229Z,84.21
2022-12-19T06:45:27.692Z,84.55
2022-12-19T06:47:59.461Z,84.85
2022-12-19T06:50:27.407Z,85.07
2022-12-19T06:52:54.854Z,85.29
2022-12-19T06:55:22.360Z,84.79
2022-12-19T06:57:49.801Z,85.21
2022-12-19T07:00:17.864Z,85.15
2022-12-19T07:02:49.099Z,85.11
2022-12-19T07:05:18.073Z,84.98
2022-12-19T07:07:45.531Z,85.36
2022-12-19T07:10:13.061Z,85.43
2022-12-19T07:12:40.557Z,85.46
2022-12-19T07:15:08.659Z,85.06
2022-12-19T07:17:37.137Z,85.22
2022-12-19T07:20:05.257Z,84.91
2022-12-19T07:22:37.294Z,85.57
2022-12-19T07:25:06.912Z,85.30
2022-12-19T07:27:36.089Z,84.91
2022-12-19T07:30:05.550Z,84.49
2022-12-19T07:32:33.067Z,85.13
2022-12-19T07:35:00.552Z,85.19
2022-12-19T07:37:28.030Z,84.92
2022-12-19T07:39:56.830Z,85.22
2022-12-19T07:42:27.032Z,86.15
2022-12-19T07:44:58.334Z,85.35
2022-12-19T07:47:27.458Z,84.94
2022-12-19T07:49:54.986Z,85.34
2022-12-19T07:52:22.455Z,85.28
2022-12-19T07:54:52.701Z,85.46
2022-12-19T07:57:21.727Z,86.06
2022-12-19T07:59:49.221Z,85.06
2022-12-19T08:02:16.735Z,84.96
2022-12-19T08:04:44.276Z,85.35
2022-12-19T08:07:12.674Z,84.74
2022-12-19T08:09:40.155Z,84.68
2022-12-19T08:12:07.868Z,84.78
2022-12-19T08:14:36.785Z,85.21
2022-12-19T08:17:20.418Z,85.00
2022-12-19T08:19:48.553Z,85.13
2022-12-19T08:22:15.996Z,85.05
2022-12-19T08:24:43.415Z,85.71
2022-12-19T08:27:10.972Z,85.18
2022-12-19T08:29:39.799Z,84.85
2022-12-19T08:32:07.246Z,85.02
2022-12-19T08:34:34.750Z,84.12
2022-12-19T08:37:02.213Z,84.91
2022-12-19T08:39:29.696Z,84.89
2022-12-19T08:41:57.189Z,84.98
2022-12-19T08:44:24.626Z,84.83
2022-12-19T08:46:53.552Z,84.81
2022-12-19T08:49:21.374Z,84.46
2022-12-19T08:51:48.814Z,84.00
2022-12-19T08:54:16.576Z,84.30
2022-12-19T08:56:46.079Z,84.69
2022-12-19T08:59:16.068Z,83.96
2022-12-19T09:01:54.581Z,84.45
2022-12-19T09:05:03.653Z,84.32
2022-12-19T09:07:09.943Z,84.64
2022-12-19T09:09:37.409Z,84.77
2022-12-19T09:12:05.083Z,84.46
2022-12-19T09:14:34.557Z,84.55
2022-12-19T09:17:03.452Z,84.39
2022-12-19T09:19:32.481Z,84.19
2022-12-19T09:22:00.306Z,83.84
2022-12-19T09:24:28.180Z,84.24
2022-12-19T09:26:55.733Z,84.44
2022-12-19T09:29:23.245Z,84.05
2022-12-19T09:31:55.651Z,84.26
2022-12-19T09:34:34.849Z,84.66
2022-12-19T09:37:06.503Z,84.49
2022-12-19T09:39:34.883Z,84.25
2022-12-19T09:42:28.117Z,83.70
2022-12-19T09:45:11.416Z,83.96
2022-12-19T09:47:45.020Z,83.67
2022-12-19T09:50:27.923Z,83.99
2022-12-19T09:53:01.159Z,83.74
2022-12-19T09:55:33.940Z,83.92
2022-12-19T09:58:08.341Z,83.71
2022-12-19T10:00:40.647Z,83.92
2022-12-19T10:03:17.181Z,83.64
2022-12-19T10:06:35.423Z,84.01
2022-12-19T10:08:54.970Z,83.26
2022-12-19T10:12:44.176Z,83.07
2022-12-19T10:14:44.772Z,83.67
2022-12-19T10:17:25.462Z,84.00
2022-12-19T10:20:09.596Z,83.59
2022-12-19T10:22:44.595Z,82.80
2022-12-19T10:25:35.168Z,83.31
2022-12-19T10:28:13.393Z,82.94
2022-12-19T10:30:45.961Z,82.86
2022-12-19T10:33:22.800Z,82.82
2022-12-19T10:35:55.239Z,82.97
2022-12-19T10:38:29.434Z,83.11
2022-12-19T10:41:14.711Z,82.41
2022-12-19T10:43:52.045Z,82.22
2022-12-19T10:46:28.288Z,82.49
2022-12-19T10:48:55.814Z,81.79
2022-12-19T10:51:27.185Z,82.27
2022-12-19T10:53:57.325Z,82.12
2022-12-19T10:56:31.689Z,82.40
2022-12-19T10:59:03.984Z,81.44
2022-12-19T11:01:36.205Z,81.37
2022-12-19T11:04:21.970Z,81.22
2022-12-19T11:06:52.327Z,81.13
2022-12-19T11:09:24.477Z,81.21
2022-12-19T11:15:27.324Z,81.50
2022-12-19T11:20:07.136Z,80.37
2022-12-19T11:23:31.355Z,80.86
2022-12-19T11:29:31.661Z,80.33
2022-12-19T11:29:38.524Z,80.13
2022-12-19T11:30:46.254Z,79.69
2022-12-19T11:30:46.432Z,79.93
2022-12-19T11:34:32.030Z,78.97
2022-12-19T11:37:10.240Z,79.47
2022-12-19T11:39:42.716Z,78.99
2022-12-19T11:42:21.422Z,79.90
2022-12-19T11:44:51.932Z,79.04
2022-12-19T11:47:32.311Z,79.26
2022-12-19T11:50:04.432Z,79.42
2022-12-19T11:55:40.744Z,79.76
2022-12-19T11:58:11.984Z,79.71
2022-12-19T12:00:46.421Z,79.74
2022-12-19T12:03:37.012Z,79.18
2022-12-19T12:06:12.696Z,78.79
2022-12-19T12:11:18.240Z,78.20
2022-12-19T12:18:32.177Z,78.86
2022-12-19T12:24:26.263Z,77.66
2022-12-19T12:31:04.227Z,78.54
2022-12-19T12:31:21.920Z,78.51
2022-12-19T12:31:22.520Z,77.61
2022-12-19T12:31:45.833Z,77.90
2022-12-19T12:31:49.434Z,77.56
2022-12-19T12:35:42.532Z,77.82
2022-12-19T12:38:31.701Z,77.35
2022-12-19T12:41:11.106Z,77.54
2022-12-19T12:43:58.816Z,76.95
2022-12-19T12:46:32.330Z,76.58
2022-12-19T12:49:03.896Z,76.72
2022-12-19T12:51:33.100Z,76.28
2022-12-19T12:54:05.014Z,75.27
2022-12-19T12:56:33.415Z,74.83
2022-12-19T12:59:21.123Z,75.17
2022-12-19T13:01:53.172Z,76.42
2022-12-19T13:04:27.579Z,75.25
2022-12-19T13:07:31.261Z,75.22
2022-12-19T13:10:18.597Z,75.51
2022-12-19T13:13:01.319Z,75.10
2022-12-19T13:15:37.354Z,75.45
2022-12-19T13:18:32.546Z,74.36
2022-12-19T13:21:04.247Z,74.77
2022-12-19T13:23:44.879Z,74.95
2022-12-19T13:26:41.993Z,74.68
2022-12-19T13:29:38.751Z,73.12
2022-12-19T13:32:15.821Z,73.96
2022-12-19T13:35:01.346Z,74.27
2022-12-19T13:39:51.640Z,73.58
2022-12-19T13:40:35.005Z,73.78
2022-12-19T13:43:31.356Z,73.55
2022-12-19T13:46:01.014Z,74.09
2022-12-19T13:48:34.165Z,73.88
2022-12-19T13:51:06.209Z,73.39
2022-12-19T13:53:35.877Z,74.00
2022-12-19T13:56:05.586Z,73.38
2022-12-19T13:58:37.595Z,73.08
2022-12-19T14:01:11.487Z,73.29
2022-12-19T14:03:51.334Z,72.31
2022-12-19T14:06:22.664Z,71.45
2022-12-19T14:09:25.146Z,72.19
2022-12-19T14:12:25.975Z,72.51
2022-12-19T14:14:58.037Z,72.37
2022-12-19T14:17:37.466Z,71.29
2022-12-19T14:22:03.705Z,71.85
2022-12-19T14:23:06.374Z,71.65
2022-12-19T14:28:14.683Z,72.73
2022-12-19T14:28:39.523Z,71.58
2022-12-19T14:31:12.190Z,72.36
2022-12-19T14:33:58.907Z,72.53
2022-12-19T14:36:33.666Z,73.13
2022-12-19T14:39:22.153Z,72.44
2022-12-19T14:42:09.538Z,72.96
2022-12-19T14:54:08.900Z,73.10
2022-12-19T14:54:20.956Z,72.14
2022-12-19T14:54:21.092Z,72.19
2022-12-19T14:54:45.180Z,72.50
2022-12-19T14:58:58.432Z,72.10
2022-12-19T15:01:28.670Z,73.07
2022-12-19T15:04:52.641Z,72.71
2022-12-19T15:07:09.009Z,71.69
2022-12-19T15:10:58.786Z,72.60
2022-12-19T15:14:57.296Z,73.21
2022-12-19T15:15:41.020Z,72.32
2022-12-19T15:18:20.854Z,73.47
2022-12-19T15:20:48.409Z,72.99
2022-12-19T15:23:21.655Z,73.05
2022-12-19T15:26:07.358Z,72.68
2022-12-19T15:28:39.875Z,72.04
2022-12-19T15:31:18.087Z,72.72
2022-12-19T15:34:14.504Z,71.85
2022-12-19T15:36:33.190Z,71.75
2022-12-19T15:39:00.687Z,71.60
2022-12-19T15:41:28.653Z,71.93
2022-12-19T15:44:05.411Z,71.89
2022-12-19T15:46:35.430Z,72.17
2022-12-19T15:49:02.994Z,71.83
2022-12-19T15:51:30.464Z,72.71
2022-12-19T15:54:22.242Z,72.08
2022-12-19T15:56:47.618Z,71.88
2022-12-19T15:59:34.810Z,72.49
2022-12-19T16:02:16.259Z,72.91
2022-12-19T16:04:44.364Z,72.71
2022-12-19T16:07:15.992Z,73.07
2022-12-19T16:09:43.512Z,73.12
2022-12-19T16:12:15.330Z,72.80
2022-12-19T16:14:43.019Z,72.25
2022-12-19T16:17:17.426Z,72.40
2022-12-19T16:19:45.110Z,72.13
2022-12-19T16:22:18.360Z,71.79
2022-12-19T16:24:45.841Z,72.30
2022-12-19T16:27:20.443Z,71.91
2022-12-19T16:29:48.007Z,72.19
2022-12-19T16:32:17.538Z,72.86
2022-12-19T16:34:45.111Z,72.22
2022-12-19T16:37:12.631Z,72.62
2022-12-19T16:39:40.101Z,72.48
2022-12-19T16:42:15.583Z,72.87
2022-12-19T16:44:44.653Z,72.33
2022-12-19T16:47:14.108Z,72.42
2022-12-19T16:49:43.557Z,72.47
2022-12-19T16:52:11.177Z,72.55
2022-12-19T16:54:38.639Z,72.93
2022-12-19T16:57:15.564Z,72.48
2022-12-19T16:59:43.205Z,72.18
2022-12-19T17:02:36.351Z,71.61
2022-12-19T17:05:06.216Z,72.20
2022-12-19T17:07:33.683Z,71.39
2022-12-19T17:10:01.207Z,71.65
2022-12-19T17:12:29.185Z,73.14
2022-12-19T17:14:56.679Z,71.39
2022-12-19T17:17:24.736Z,71.46
2022-12-19T17:19:52.421Z,72.33
2022-12-19T17:22:21.552Z,72.19
2022-12-19T17:24:50.061Z,73.06
2022-12-19T17:27:19.106Z,72.90
2022-12-19T17:29:47.074Z,73.51
2022-12-19T17:32:23.302Z,72.79
2022-12-19T17:34:52.682Z,72.22
2022-12-19T17:37:21.800Z,72.96
2022-12-19T17:39:49.341Z,72.03
2022-12-19T17:42:22.462Z,73.11
2022-12-19T17:44:50.227Z,71.95
2022-12-19T17:47:19.929Z,72.65
2022-12-19T17:49:48.944Z,72.49
2022-12-19T17:52:19.236Z,71.90
2022-12-19T17:54:48.420Z,71.70
2022-12-19T17:57:17.147Z,72.61
2022-12-19T17:59:46.313Z,71.89
2022-12-19T18:02:21.521Z,72.65
2022-12-19T18:04:49.025Z,72.23
2022-12-19T18:07:19.088Z,71.37
2022-12-19T18:09:48.042Z,71.87
2022-12-19T18:12:15.707Z,72.42
2022-12-19T18:14:43.318Z,71.52
2022-12-19T18:17:12.702Z,71.21
2022-12-19T18:19:40.824Z,72.24
2022-12-19T18:22:13.104Z,71.98
2022-12-19T18:24:40.745Z,72.12
2022-12-19T18:27:09.681Z,71.35
2022-12-19T18:29:37.169Z,71.18
2022-12-19T18:32:04.944Z,70.94
2022-12-19T18:34:35.435Z,71.06
2022-12-19T18:37:05.276Z,70.69
2022-12-19T18:39:33.982Z,71.88
2022-12-19T18:42:01.882Z,71.21
2022-12-19T18:44:30.891Z,71.03
2022-12-19T18:46:58.896Z,70.77
2022-12-19T18:49:28.609Z,70.90
2022-12-19T18:51:56.276Z,70.98
2022-12-19T18:54:23.758Z,71.40
2022-12-19T18:56:51.818Z,71.08
2022-12-19T18:59:19.934Z,71.77
2022-12-19T19:01:48.867Z,71.29
2022-12-19T19:04:17.835Z,72.21
2022-12-19T19:06:50.889Z,72.00
2022-12-19T19:09:20.870Z,71.56
2022-12-19T19:11:48.447Z,71.54
2022-12-19T19:14:15.968Z,72.15
2022-12-19T19:16:43.731Z,71.58
2022-12-19T19:19:17.661Z,72.21
2022-12-19T19:21:45.175Z,72.49
2022-12-19T19:24:15.800Z,72.64
2022-12-19T19:26:43.334Z,72.15
2022-12-19T19:29:13.326Z,71.41
2022-12-19T19:31:43.500Z,71.82
2022-12-19T19:34:16.348Z,71.76
2022-12-19T19:36:49.318Z,71.56
2022-12-19T19:39:17.491Z,71.77
2022-12-19T19:41:44.964Z,71.94
2022-12-19T19:44:12.528Z,71.87
2022-12-19T19:46:40.045Z,72.24
2022-12-19T19:49:07.612Z,72.23
2022-12-19T19:51:36.454Z,71.42
2022-12-19T19:54:03.928Z,71.06
2022-12-19T19:56:32.242Z,71.56
2022-12-19T19:59:00.590Z,71.74
2022-12-19T20:01:28.440Z,71.94
2022-12-19T20:03:56.074Z,71.96
2022-12-19T20:06:23.637Z,71.45
2022-12-19T20:08:52.550Z,72.25
2022-12-19T20:11:20.682Z,72.63
2022-12-19T20:13:48.173Z,72.41
2022-12-19T20:16:17.904Z,72.63
2022-12-19T20:18:48.392Z,73.12
2022-12-19T20:21:15.945Z,72.08
2022-12-19T20:23:44.647Z,72.85
2022-12-19T20:26:16.142Z,73.77
2022-12-19T20:28:49.077Z,73.21
2022-12-19T20:31:19.110Z,72.80
2022-12-19T20:33:48.010Z,73.99
2022-12-19T20:36:15.856Z,73.31
2022-12-19T20:38:43.706Z,72.66
2022-12-19T20:41:11.352Z,73.14
2022-12-19T20:43:40.216Z,72.80
2022-12-19T20:46:09.668Z,73.04
2022-12-19T20:48:37.701Z,73.21
2022-12-19T20:51:06.189Z,72.29
2022-12-19T20:53:34.546Z,73.32
2022-12-19T20:56:05.349Z,73.15
2022-12-19T20:58:35.161Z,73.51
2022-12-19T21:01:07.306Z,72.91
2022-12-19T21:03:35.455Z,73.66
2022-12-19T21:06:04.016Z,74.11
2022-12-19T21:08:31.920Z,73.14
2022-12-19T21:11:01.054Z,73.36
2022-12-19T21:13:28.782Z,73.71
2022-12-19T21:15:58.364Z,74.25
2022-12-19T21:18:28.148Z,73.81
2022-12-19T21:20:56.629Z,73.70
2022-12-19T21:23:25.189Z,75.08
2022-12-19T21:25:53.243Z,75.31
2022-12-19T21:28:21.240Z,75.79
2022-12-19T21:30:56.233Z,75.51
2022-12-19T21:33:23.779Z,74.98
2022-12-19T21:35:52.598Z,74.99
2022-12-19T21:38:20.334Z,75.75
2022-12-19T21:40:47.806Z,75.83
2022-12-19T21:43:15.267Z,75.07
2022-12-19T21:45:42.830Z,75.64
2022-12-19T21:48:10.363Z,74.73
2022-12-19T21:50:37.850Z,74.98
2022-12-19T21:53:06.677Z,76.08
2022-12-19T21:55:34.145Z,75.67
2022-12-19T21:58:01.588Z,76.14
2022-12-19T22:00:29.086Z,75.70
2022-12-19T22:03:13.468Z,76.94
2022-12-19T22:05:42.178Z,77.32
2022-12-19T22:08:11.879Z,78.04
2022-12-19T22:10:39.461Z,76.54
2022-12-19T22:13:06.961Z,76.38
2022-12-19T22:15:36.474Z,76.42
2022-12-19T22:18:03.965Z,75.56
2022-12-19T22:20:31.430Z,75.40
2022-12-19T22:22:58.924Z,76.66
2022-12-19T22:25:27.728Z,75.75
2022-12-19T22:27:56.288Z,75.62
2022-12-19T22:30:23.754Z,76.20
2022-12-19T22:32:51.213Z,75.86
2022-12-19T22:35:18.709Z,75.74
2022-12-19T22:37:46.323Z,76.75
2022-12-19T22:40:14.242Z,76.58
2022-12-19T22:42:43.088Z,76.43
2022-12-19T22:45:11.268Z,75.43
2022-12-19T22:47:41.851Z,75.53
2022-12-19T22:50:10.323Z,75.32
2022-12-19T22:52:38.577Z,76.05
2022-12-19T22:55:07.040Z,75.87
2022-12-19T22:57:34.567Z,76.13
2022-12-19T23:00:04.855Z,75.47
2022-12-19T23:02:32.533Z,75.73
2022-12-19T23:05:00.149Z,75.92
2022-12-19T23:07:27.596Z,75.54
2022-12-19T23:09:55.276Z,75.53
2022-12-19T23:12:22.721Z,74.40
2022-12-19T23:14:52.465Z,74.75
2022-12-19T23:17:21.264Z,75.12
2022-12-19T23:19:48.727Z,74.32
2022-12-19T23:22:16.195Z,74.66
2022-12-19T23:24:45.664Z,74.29
2022-12-19T23:27:13.301Z,74.08
2022-12-19T23:29:40.831Z,74.42
2022-12-19T23:32:08.337Z,74.42
2022-12-19T23:34:38.503Z,74.40
2022-12-19T23:37:11.055Z,74.03
2022-12-19T23:39:38.869Z,74.70
2022-12-19T23:42:06.422Z,74.48
2022-12-19T23:44:34.138Z,74.59
2022-12-19T23:47:03.796Z,74.39
2022-12-19T23:49:31.939Z,73.41
2022-12-19T23:52:00.814Z,73.17
2022-12-19T23:54:28.534Z,73.31
2022-12-19T23:56:55.998Z,72.97
2022-12-19T23:59:23.608Z,73.30
